sensor_id;sensor_type;location;lat;lon;timestamp;P1;durP1;ratioP1;P2;durP2;ratioP2
9438;SDS011;5176;42.622;25.386;2023-06-22T00:00:18;15.88;;;13.95;;
9438;SDS011;5176;42.622;25.386;2023-06-22T00:02:47;15.23;;;13.65;;
9438;SDS011;5176;42.622;25.386;2023-06-22T00:05:16;14.85;;;13.23;;
9438;SDS011;5176;42.622;25.386;2023-06-22T00:07:43;14.00;;;12.63;;
9438;SDS011;5176;42.622;25.386;2023-06-22T00:10:11;13.75;;;12.02;;
9438;SDS011;5176;42.622;25.386;2023-06-22T00:12:39;13.60;;;11.95;;
9438;SDS011;5176;42.622;25.386;2023-06-22T00:15:07;13.82;;;12.45;;
9438;SDS011;5176;42.622;25.386;2023-06-22T00:17:35;12.95;;;11.70;;
9438;SDS011;5176;42.622;25.386;2023-06-22T00:20:02;13.73;;;12.52;;
9438;SDS011;5176;42.622;25.386;2023-06-22T00:22:33;14.82;;;13.43;;
9438;SDS011;5176;42.622;25.386;2023-06-22T00:25:05;13.93;;;12.73;;
9438;SDS011;5176;42.622;25.386;2023-06-22T00:27:33;14.20;;;12.90;;
9438;SDS011;5176;42.622;25.386;2023-06-22T00:30:02;14.43;;;13.13;;
9438;SDS011;5176;42.622;25.386;2023-06-22T00:32:30;14.27;;;12.98;;
9438;SDS011;5176;42.622;25.386;2023-06-22T00:34:58;15.05;;;13.65;;
9438;SDS011;5176;42.622;25.386;2023-06-22T00:37:25;13.80;;;12.70;;
9438;SDS011;5176;42.622;25.386;2023-06-22T00:39:54;15.00;;;12.98;;
9438;SDS011;5176;42.622;25.386;2023-06-22T00:42:22;15.20;;;13.70;;
9438;SDS011;5176;42.622;25.386;2023-06-22T00:44:49;13.77;;;12.48;;
9438;SDS011;5176;42.622;25.386;2023-06-22T00:47:18;13.68;;;12.38;;
9438;SDS011;5176;42.622;25.386;2023-06-22T00:49:46;13.30;;;12.20;;
9438;SDS011;5176;42.622;25.386;2023-06-22T00:52:16;13.80;;;12.43;;
9438;SDS011;5176;42.622;25.386;2023-06-22T00:54:46;14.60;;;12.68;;
9438;SDS011;5176;42.622;25.386;2023-06-22T00:57:14;14.43;;;13.02;;
9438;SDS011;5176;42.622;25.386;2023-06-22T00:59:42;17.13;;;13.90;;
9438;SDS011;5176;42.622;25.386;2023-06-22T01:02:10;14.60;;;13.07;;
9438;SDS011;5176;42.622;25.386;2023-06-22T01:04:40;14.68;;;13.27;;
9438;SDS011;5176;42.622;25.386;2023-06-22T01:07:10;15.73;;;13.88;;
9438;SDS011;5176;42.622;25.386;2023-06-22T01:09:45;14.40;;;13.02;;
9438;SDS011;5176;42.622;25.386;2023-06-22T01:12:18;17.50;;;13.95;;
9438;SDS011;5176;42.622;25.386;2023-06-22T01:14:47;15.35;;;13.88;;
9438;SDS011;5176;42.622;25.386;2023-06-22T01:17:22;16.00;;;14.27;;
9438;SDS011;5176;42.622;25.386;2023-06-22T01:19:54;15.55;;;14.18;;
9438;SDS011;5176;42.622;25.386;2023-06-22T01:22:23;15.73;;;14.15;;
9438;SDS011;5176;42.622;25.386;2023-06-22T01:25:00;15.38;;;13.88;;
9438;SDS011;5176;42.622;25.386;2023-06-22T01:27:39;15.68;;;14.07;;
9438;SDS011;5176;42.622;25.386;2023-06-22T01:30:19;16.48;;;14.18;;
9438;SDS011;5176;42.622;25.386;2023-06-22T01:32:47;15.15;;;13.75;;
9438;SDS011;5176;42.622;25.386;2023-06-22T01:35:16;15.50;;;13.93;;
9438;SDS011;5176;42.622;25.386;2023-06-22T01:37:45;15.88;;;14.38;;
9438;SDS011;5176;42.622;25.386;2023-06-22T01:40:13;16.60;;;14.95;;
9438;SDS011;5176;42.622;25.386;2023-06-22T01:42:42;17.30;;;15.02;;
9438;SDS011;5176;42.622;25.386;2023-06-22T01:45:10;17.13;;;15.50;;
9438;SDS011;5176;42.622;25.386;2023-06-22T01:47:40;17.42;;;15.73;;
9438;SDS011;5176;42.622;25.386;2023-06-22T01:50:09;16.48;;;15.07;;
9438;SDS011;5176;42.622;25.386;2023-06-22T01:52:37;17.23;;;15.48;;
9438;SDS011;5176;42.622;25.386;2023-06-22T01:55:04;19.52;;;15.90;;
9438;SDS011;5176;42.622;25.386;2023-06-22T01:57:33;17.40;;;15.68;;
9438;SDS011;5176;42.622;25.386;2023-06-22T02:00:01;16.70;;;14.57;;
9438;SDS011;5176;42.622;25.386;2023-06-22T02:02:31;17.33;;;15.55;;
9438;SDS011;5176;42.622;25.386;2023-06-22T02:05:05;16.38;;;14.88;;
9438;SDS011;5176;42.622;25.386;2023-06-22T02:07:36;21.20;;;14.30;;
9438;SDS011;5176;42.622;25.386;2023-06-22T02:10:08;16.38;;;14.70;;
9438;SDS011;5176;42.622;25.386;2023-06-22T02:12:38;15.73;;;14.32;;
9438;SDS011;5176;42.622;25.386;2023-06-22T02:15:09;15.25;;;13.45;;
9438;SDS011;5176;42.622;25.386;2023-06-22T02:17:38;15.20;;;13.75;;
9438;SDS011;5176;42.622;25.386;2023-06-22T02:20:13;15.80;;;13.63;;
9438;SDS011;5176;42.622;25.386;2023-06-22T02:22:41;14.98;;;13.25;;
9438;SDS011;5176;42.622;25.386;2023-06-22T02:25:08;14.90;;;13.38;;
9438;SDS011;5176;42.622;25.386;2023-06-22T02:27:35;15.18;;;13.68;;
9438;SDS011;5176;42.622;25.386;2023-06-22T02:30:06;16.85;;;13.32;;
9438;SDS011;5176;42.622;25.386;2023-06-22T02:32:34;15.02;;;13.57;;
9438;SDS011;5176;42.622;25.386;2023-06-22T02:35:01;14.77;;;13.30;;
9438;SDS011;5176;42.622;25.386;2023-06-22T02:37:31;15.68;;;14.27;;
9438;SDS011;5176;42.622;25.386;2023-06-22T02:39:59;15.65;;;14.05;;
9438;SDS011;5176;42.622;25.386;2023-06-22T02:42:26;16.00;;;14.57;;
9438;SDS011;5176;42.622;25.386;2023-06-22T02:44:53;16.77;;;15.00;;
9438;SDS011;5176;42.622;25.386;2023-06-22T02:47:21;17.48;;;15.65;;
9438;SDS011;5176;42.622;25.386;2023-06-22T02:49:48;16.33;;;14.73;;
9438;SDS011;5176;42.622;25.386;2023-06-22T02:52:15;16.42;;;14.82;;
9438;SDS011;5176;42.622;25.386;2023-06-22T02:54:44;15.27;;;13.88;;
9438;SDS011;5176;42.622;25.386;2023-06-22T02:57:11;16.05;;;14.40;;
9438;SDS011;5176;42.622;25.386;2023-06-22T02:59:39;16.20;;;14.48;;
9438;SDS011;5176;42.622;25.386;2023-06-22T03:02:07;17.02;;;14.40;;
9438;SDS011;5176;42.622;25.386;2023-06-22T03:04:35;14.07;;;12.75;;
9438;SDS011;5176;42.622;25.386;2023-06-22T03:07:02;15.55;;;13.32;;
9438;SDS011;5176;42.622;25.386;2023-06-22T03:09:30;14.48;;;13.18;;
9438;SDS011;5176;42.622;25.386;2023-06-22T03:11:59;14.13;;;12.82;;
9438;SDS011;5176;42.622;25.386;2023-06-22T03:14:27;14.77;;;13.48;;
9438;SDS011;5176;42.622;25.386;2023-06-22T03:16:54;14.88;;;13.48;;
9438;SDS011;5176;42.622;25.386;2023-06-22T03:19:28;15.98;;;14.48;;
9438;SDS011;5176;42.622;25.386;2023-06-22T03:21:57;15.68;;;14.07;;
9438;SDS011;5176;42.622;25.386;2023-06-22T03:24:27;17.30;;;15.55;;
9438;SDS011;5176;42.622;25.386;2023-06-22T03:26:55;18.33;;;16.40;;
9438;SDS011;5176;42.622;25.386;2023-06-22T03:29:24;18.50;;;16.70;;
9438;SDS011;5176;42.622;25.386;2023-06-22T03:31:51;16.63;;;15.02;;
9438;SDS011;5176;42.622;25.386;2023-06-22T03:34:18;17.60;;;15.35;;
9438;SDS011;5176;42.622;25.386;2023-06-22T03:36:46;17.88;;;16.20;;
9438;SDS011;5176;42.622;25.386;2023-06-22T03:39:13;18.55;;;16.65;;
9438;SDS011;5176;42.622;25.386;2023-06-22T03:41:40;17.73;;;15.77;;
9438;SDS011;5176;42.622;25.386;2023-06-22T03:44:07;15.70;;;14.20;;
9438;SDS011;5176;42.622;25.386;2023-06-22T03:46:39;17.42;;;15.40;;
9438;SDS011;5176;42.622;25.386;2023-06-22T03:49:06;18.30;;;16.52;;
9438;SDS011;5176;42.622;25.386;2023-06-22T03:51:33;18.20;;;16.50;;
9438;SDS011;5176;42.622;25.386;2023-06-22T03:54:00;19.25;;;17.13;;
9438;SDS011;5176;42.622;25.386;2023-06-22T03:56:28;20.10;;;17.85;;
9438;SDS011;5176;42.622;25.386;2023-06-22T03:58:55;20.05;;;18.02;;
9438;SDS011;5176;42.622;25.386;2023-06-22T04:01:22;20.48;;;18.30;;
9438;SDS011;5176;42.622;25.386;2023-06-22T04:03:51;19.00;;;17.27;;
9438;SDS011;5176;42.622;25.386;2023-06-22T04:06:18;19.60;;;17.67;;
9438;SDS011;5176;42.622;25.386;2023-06-22T04:08:45;19.60;;;17.67;;
9438;SDS011;5176;42.622;25.386;2023-06-22T04:11:16;20.08;;;18.20;;
9438;SDS011;5176;42.622;25.386;2023-06-22T04:13:43;21.85;;;18.30;;
9438;SDS011;5176;42.622;25.386;2023-06-22T04:16:11;20.23;;;18.23;;
9438;SDS011;5176;42.622;25.386;2023-06-22T04:18:38;19.75;;;17.60;;
9438;SDS011;5176;42.622;25.386;2023-06-22T04:21:06;20.88;;;18.88;;
9438;SDS011;5176;42.622;25.386;2023-06-22T04:23:34;22.20;;;18.58;;
9438;SDS011;5176;42.622;25.386;2023-06-22T04:26:01;21.13;;;18.92;;
9438;SDS011;5176;42.622;25.386;2023-06-22T04:28:28;21.30;;;19.15;;
9438;SDS011;5176;42.622;25.386;2023-06-22T04:31:00;21.15;;;18.92;;
9438;SDS011;5176;42.622;25.386;2023-06-22T04:33:27;21.15;;;18.63;;
9438;SDS011;5176;42.622;25.386;2023-06-22T04:35:55;21.75;;;18.25;;
9438;SDS011;5176;42.622;25.386;2023-06-22T04:38:25;18.75;;;16.55;;
9438;SDS011;5176;42.622;25.386;2023-06-22T04:40:52;18.80;;;17.00;;
9438;SDS011;5176;42.622;25.386;2023-06-22T04:43:19;18.35;;;15.43;;
9438;SDS011;5176;42.622;25.386;2023-06-22T04:45:46;17.42;;;15.63;;
9438;SDS011;5176;42.622;25.386;2023-06-22T04:48:17;18.27;;;14.95;;
9438;SDS011;5176;42.622;25.386;2023-06-22T04:50:45;16.60;;;14.90;;
9438;SDS011;5176;42.622;25.386;2023-06-22T04:53:13;17.08;;;14.75;;
9438;SDS011;5176;42.622;25.386;2023-06-22T04:55:42;17.08;;;15.27;;
9438;SDS011;5176;42.622;25.386;2023-06-22T04:58:11;16.25;;;14.68;;
9438;SDS011;5176;42.622;25.386;2023-06-22T05:00:38;17.40;;;13.30;;
9438;SDS011;5176;42.622;25.386;2023-06-22T05:03:05;14.65;;;13.25;;
9438;SDS011;5176;42.622;25.386;2023-06-22T05:05:36;15.25;;;13.85;;
9438;SDS011;5176;42.622;25.386;2023-06-22T05:08:04;14.77;;;13.45;;
9438;SDS011;5176;42.622;25.386;2023-06-22T05:10:32;15.40;;;13.70;;
9438;SDS011;5176;42.622;25.386;2023-06-22T05:13:01;14.43;;;13.02;;
9438;SDS011;5176;42.622;25.386;2023-06-22T05:15:28;15.10;;;13.65;;
9438;SDS011;5176;42.622;25.386;2023-06-22T05:17:58;14.90;;;13.40;;
9438;SDS011;5176;42.622;25.386;2023-06-22T05:20:30;15.63;;;13.57;;
9438;SDS011;5176;42.622;25.386;2023-06-22T05:22:59;15.23;;;13.82;;
9438;SDS011;5176;42.622;25.386;2023-06-22T05:25:26;15.20;;;13.60;;
9438;SDS011;5176;42.622;25.386;2023-06-22T05:27:55;14.13;;;12.63;;
9438;SDS011;5176;42.622;25.386;2023-06-22T05:30:24;14.90;;;13.48;;
9438;SDS011;5176;42.622;25.386;2023-06-22T05:32:51;15.63;;;13.27;;
9438;SDS011;5176;42.622;25.386;2023-06-22T05:35:18;15.23;;;13.73;;
9438;SDS011;5176;42.622;25.386;2023-06-22T05:37:46;15.57;;;13.60;;
9438;SDS011;5176;42.622;25.386;2023-06-22T05:40:13;16.48;;;13.35;;
9438;SDS011;5176;42.622;25.386;2023-06-22T05:42:41;14.20;;;12.90;;
9438;SDS011;5176;42.622;25.386;2023-06-22T05:45:09;13.85;;;12.40;;
9438;SDS011;5176;42.622;25.386;2023-06-22T05:47:38;13.85;;;12.68;;
9438;SDS011;5176;42.622;25.386;2023-06-22T05:50:06;15.32;;;13.75;;
9438;SDS011;5176;42.622;25.386;2023-06-22T05:52:34;15.25;;;13.75;;
9438;SDS011;5176;42.622;25.386;2023-06-22T05:55:02;16.60;;;14.90;;
9438;SDS011;5176;42.622;25.386;2023-06-22T05:57:29;15.13;;;13.73;;
9438;SDS011;5176;42.622;25.386;2023-06-22T05:59:56;14.93;;;13.52;;
9438;SDS011;5176;42.622;25.386;2023-06-22T06:02:24;15.32;;;13.80;;
9438;SDS011;5176;42.622;25.386;2023-06-22T06:04:53;14.57;;;13.27;;
9438;SDS011;5176;42.622;25.386;2023-06-22T06:07:20;14.85;;;13.55;;
9438;SDS011;5176;42.622;25.386;2023-06-22T06:09:48;15.45;;;13.18;;
9438;SDS011;5176;42.622;25.386;2023-06-22T06:12:15;14.30;;;13.00;;
9438;SDS011;5176;42.622;25.386;2023-06-22T06:14:43;13.57;;;12.27;;
9438;SDS011;5176;42.622;25.386;2023-06-22T06:17:10;14.38;;;12.98;;
9438;SDS011;5176;42.622;25.386;2023-06-22T06:19:38;14.10;;;12.90;;
9438;SDS011;5176;42.622;25.386;2023-06-22T06:22:07;13.95;;;12.65;;
9438;SDS011;5176;42.622;25.386;2023-06-22T06:24:34;14.40;;;12.82;;
9438;SDS011;5176;42.622;25.386;2023-06-22T06:27:01;15.07;;;13.57;;
9438;SDS011;5176;42.622;25.386;2023-06-22T06:29:30;15.50;;;14.05;;
9438;SDS011;5176;42.622;25.386;2023-06-22T06:31:57;14.35;;;12.95;;
9438;SDS011;5176;42.622;25.386;2023-06-22T06:34:25;14.93;;;13.45;;
9438;SDS011;5176;42.622;25.386;2023-06-22T06:36:52;14.75;;;13.25;;
9438;SDS011;5176;42.622;25.386;2023-06-22T06:39:21;16.75;;;12.70;;
9438;SDS011;5176;42.622;25.386;2023-06-22T06:41:48;15.25;;;13.77;;
9438;SDS011;5176;42.622;25.386;2023-06-22T06:44:16;14.23;;;12.93;;
9438;SDS011;5176;42.622;25.386;2023-06-22T06:46:43;14.63;;;13.18;;
9438;SDS011;5176;42.622;25.386;2023-06-22T06:49:10;13.20;;;12.00;;
9438;SDS011;5176;42.622;25.386;2023-06-22T06:51:38;13.75;;;12.45;;
9438;SDS011;5176;42.622;25.386;2023-06-22T06:54:06;14.18;;;12.38;;
9438;SDS011;5176;42.622;25.386;2023-06-22T06:56:34;13.45;;;12.35;;
9438;SDS011;5176;42.622;25.386;2023-06-22T06:59:02;13.57;;;12.27;;
9438;SDS011;5176;42.622;25.386;2023-06-22T07:01:29;13.52;;;12.27;;
9438;SDS011;5176;42.622;25.386;2023-06-22T07:03:59;13.45;;;12.27;;
9438;SDS011;5176;42.622;25.386;2023-06-22T07:06:26;13.70;;;12.40;;
9438;SDS011;5176;42.622;25.386;2023-06-22T07:08:57;14.63;;;13.32;;
9438;SDS011;5176;42.622;25.386;2023-06-22T07:11:24;14.07;;;12.77;;
9438;SDS011;5176;42.622;25.386;2023-06-22T07:13:53;14.50;;;13.05;;
9438;SDS011;5176;42.622;25.386;2023-06-22T07:16:20;13.73;;;12.32;;
9438;SDS011;5176;42.622;25.386;2023-06-22T07:18:49;14.90;;;13.38;;
9438;SDS011;5176;42.622;25.386;2023-06-22T07:21:16;13.73;;;12.63;;
9438;SDS011;5176;42.622;25.386;2023-06-22T07:23:43;13.88;;;12.43;;
9438;SDS011;5176;42.622;25.386;2023-06-22T07:26:10;13.00;;;11.70;;
9438;SDS011;5176;42.622;25.386;2023-06-22T07:28:38;12.68;;;11.63;;
9438;SDS011;5176;42.622;25.386;2023-06-22T07:31:07;12.63;;;11.55;;
9438;SDS011;5176;42.622;25.386;2023-06-22T07:33:34;12.50;;;11.30;;
9438;SDS011;5176;42.622;25.386;2023-06-22T07:36:02;13.43;;;12.02;;
9438;SDS011;5176;42.622;25.386;2023-06-22T07:38:33;13.00;;;11.75;;
9438;SDS011;5176;42.622;25.386;2023-06-22T07:41:00;12.82;;;11.73;;
9438;SDS011;5176;42.622;25.386;2023-06-22T07:43:30;12.88;;;11.75;;
9438;SDS011;5176;42.622;25.386;2023-06-22T07:45:59;15.57;;;11.20;;
9438;SDS011;5176;42.622;25.386;2023-06-22T07:48:28;11.95;;;10.95;;
9438;SDS011;5176;42.622;25.386;2023-06-22T07:50:55;13.15;;;11.68;;
9438;SDS011;5176;42.622;25.386;2023-06-22T07:53:23;11.63;;;10.63;;
9438;SDS011;5176;42.622;25.386;2023-06-22T07:55:50;11.60;;;10.57;;
9438;SDS011;5176;42.622;25.386;2023-06-22T07:58:17;12.35;;;10.55;;
9438;SDS011;5176;42.622;25.386;2023-06-22T08:00:46;11.40;;;10.50;;
9438;SDS011;5176;42.622;25.386;2023-06-22T08:03:15;13.13;;;11.07;;
9438;SDS011;5176;42.622;25.386;2023-06-22T08:05:44;11.68;;;10.70;;
9438;SDS011;5176;42.622;25.386;2023-06-22T08:08:11;11.10;;;9.98;;
9438;SDS011;5176;42.622;25.386;2023-06-22T08:10:40;11.23;;;10.23;;
9438;SDS011;5176;42.622;25.386;2023-06-22T08:13:07;10.20;;;9.38;;
9438;SDS011;5176;42.622;25.386;2023-06-22T08:15:35;11.50;;;10.48;;
9438;SDS011;5176;42.622;25.386;2023-06-22T08:18:03;11.55;;;10.65;;
9438;SDS011;5176;42.622;25.386;2023-06-22T08:20:30;11.15;;;10.25;;
9438;SDS011;5176;42.622;25.386;2023-06-22T08:22:59;11.27;;;10.30;;
9438;SDS011;5176;42.622;25.386;2023-06-22T08:25:31;11.55;;;10.38;;
9438;SDS011;5176;42.622;25.386;2023-06-22T08:27:59;11.25;;;10.25;;
9438;SDS011;5176;42.622;25.386;2023-06-22T08:30:27;11.73;;;10.73;;
9438;SDS011;5176;42.622;25.386;2023-06-22T08:32:54;11.38;;;10.43;;
9438;SDS011;5176;42.622;25.386;2023-06-22T08:35:22;12.38;;;10.23;;
9438;SDS011;5176;42.622;25.386;2023-06-22T08:37:50;9.95;;;9.15;;
9438;SDS011;5176;42.622;25.386;2023-06-22T08:40:22;9.32;;;8.60;;
9438;SDS011;5176;42.622;25.386;2023-06-22T08:42:49;9.63;;;8.90;;
9438;SDS011;5176;42.622;25.386;2023-06-22T08:45:17;9.45;;;8.75;;
9438;SDS011;5176;42.622;25.386;2023-06-22T08:47:44;9.73;;;8.93;;
9438;SDS011;5176;42.622;25.386;2023-06-22T08:50:11;9.93;;;9.13;;
9438;SDS011;5176;42.622;25.386;2023-06-22T08:52:39;13.80;;;9.05;;
9438;SDS011;5176;42.622;25.386;2023-06-22T08:55:07;12.73;;;11.07;;
9438;SDS011;5176;42.622;25.386;2023-06-22T08:57:37;14.73;;;11.52;;
9438;SDS011;5176;42.622;25.386;2023-06-22T09:00:05;13.48;;;12.18;;
9438;SDS011;5176;42.622;25.386;2023-06-22T09:02:41;14.43;;;11.82;;
9438;SDS011;5176;42.622;25.386;2023-06-22T09:05:09;13.13;;;11.82;;
9438;SDS011;5176;42.622;25.386;2023-06-22T09:07:36;11.68;;;10.57;;
9438;SDS011;5176;42.622;25.386;2023-06-22T09:10:03;12.80;;;10.52;;
9438;SDS011;5176;42.622;25.386;2023-06-22T09:12:31;10.70;;;9.73;;
9438;SDS011;5176;42.622;25.386;2023-06-22T09:15:01;10.73;;;9.73;;
9438;SDS011;5176;42.622;25.386;2023-06-22T09:17:28;11.00;;;10.05;;
9438;SDS011;5176;42.622;25.386;2023-06-22T09:19:56;11.02;;;10.13;;
9438;SDS011;5176;42.622;25.386;2023-06-22T09:22:23;12.30;;;11.05;;
9438;SDS011;5176;42.622;25.386;2023-06-22T09:24:54;11.02;;;10.13;;
9438;SDS011;5176;42.622;25.386;2023-06-22T09:27:21;11.18;;;10.25;;
9438;SDS011;5176;42.622;25.386;2023-06-22T09:29:49;10.55;;;9.75;;
9438;SDS011;5176;42.622;25.386;2023-06-22T09:32:17;10.70;;;9.50;;
9438;SDS011;5176;42.622;25.386;2023-06-22T09:34:45;10.75;;;9.95;;
9438;SDS011;5176;42.622;25.386;2023-06-22T09:37:12;11.98;;;10.50;;
9438;SDS011;5176;42.622;25.386;2023-06-22T09:39:39;11.38;;;9.98;;
9438;SDS011;5176;42.622;25.386;2023-06-22T09:42:07;13.10;;;9.93;;
9438;SDS011;5176;42.622;25.386;2023-06-22T09:44:34;10.93;;;9.93;;
9438;SDS011;5176;42.622;25.386;2023-06-22T09:47:02;10.23;;;9.18;;
9438;SDS011;5176;42.622;25.386;2023-06-22T09:49:31;10.20;;;9.20;;
9438;SDS011;5176;42.622;25.386;2023-06-22T09:51:58;9.98;;;9.10;;
9438;SDS011;5176;42.622;25.386;2023-06-22T09:54:25;10.65;;;9.68;;
9438;SDS011;5176;42.622;25.386;2023-06-22T09:56:53;10.00;;;9.20;;
9438;SDS011;5176;42.622;25.386;2023-06-22T09:59:20;10.48;;;9.50;;
9438;SDS011;5176;42.622;25.386;2023-06-22T10:01:47;10.00;;;9.23;;
9438;SDS011;5176;42.622;25.386;2023-06-22T10:04:14;9.35;;;8.55;;
9438;SDS011;5176;42.622;25.386;2023-06-22T10:06:43;9.98;;;8.80;;
9438;SDS011;5176;42.622;25.386;2023-06-22T10:09:11;10.32;;;9.32;;
9438;SDS011;5176;42.622;25.386;2023-06-22T10:11:38;9.57;;;8.77;;
9438;SDS011;5176;42.622;25.386;2023-06-22T10:14:05;9.95;;;9.05;;
9438;SDS011;5176;42.622;25.386;2023-06-22T10:16:33;9.98;;;9.10;;
9438;SDS011;5176;42.622;25.386;2023-06-22T10:19:01;9.55;;;8.68;;
9438;SDS011;5176;42.622;25.386;2023-06-22T10:21:28;9.50;;;8.52;;
9438;SDS011;5176;42.622;25.386;2023-06-22T10:23:57;9.02;;;8.20;;
9438;SDS011;5176;42.622;25.386;2023-06-22T10:26:27;9.02;;;8.20;;
9438;SDS011;5176;42.622;25.386;2023-06-22T10:28:54;8.80;;;8.10;;
9438;SDS011;5176;42.622;25.386;2023-06-22T10:31:21;9.52;;;8.73;;
9438;SDS011;5176;42.622;25.386;2023-06-22T10:33:49;8.45;;;7.75;;
9438;SDS011;5176;42.622;25.386;2023-06-22T10:36:16;12.27;;;8.50;;
9438;SDS011;5176;42.622;25.386;2023-06-22T10:38:43;9.27;;;8.35;;
9438;SDS011;5176;42.622;25.386;2023-06-22T10:41:12;9.00;;;8.23;;
9438;SDS011;5176;42.622;25.386;2023-06-22T10:43:39;8.30;;;7.55;;
9438;SDS011;5176;42.622;25.386;2023-06-22T10:46:06;8.75;;;7.82;;
9438;SDS011;5176;42.622;25.386;2023-06-22T10:48:34;8.43;;;7.82;;
9438;SDS011;5176;42.622;25.386;2023-06-22T10:51:01;8.50;;;7.82;;
9438;SDS011;5176;42.622;25.386;2023-06-22T10:53:28;9.48;;;8.32;;
9438;SDS011;5176;42.622;25.386;2023-06-22T10:55:56;9.20;;;8.40;;
9438;SDS011;5176;42.622;25.386;2023-06-22T10:58:24;9.25;;;8.40;;
9438;SDS011;5176;42.622;25.386;2023-06-22T11:00:52;8.95;;;8.25;;
9438;SDS011;5176;42.622;25.386;2023-06-22T11:03:19;9.07;;;8.38;;
9438;SDS011;5176;42.622;25.386;2023-06-22T11:05:46;9.32;;;8.52;;
9438;SDS011;5176;42.622;25.386;2023-06-22T11:08:13;9.55;;;8.75;;
9438;SDS011;5176;42.622;25.386;2023-06-22T11:10:41;9.52;;;8.80;;
9438;SDS011;5176;42.622;25.386;2023-06-22T11:13:09;9.55;;;8.68;;
9438;SDS011;5176;42.622;25.386;2023-06-22T11:15:38;9.60;;;8.80;;
9438;SDS011;5176;42.622;25.386;2023-06-22T11:18:05;9.20;;;8.50;;
9438;SDS011;5176;42.622;25.386;2023-06-22T11:20:33;8.63;;;8.00;;
9438;SDS011;5176;42.622;25.386;2023-06-22T11:23:04;9.10;;;8.25;;
9438;SDS011;5176;42.622;25.386;2023-06-22T11:25:32;8.57;;;7.95;;
9438;SDS011;5176;42.622;25.386;2023-06-22T11:28:01;9.52;;;8.82;;
9438;SDS011;5176;42.622;25.386;2023-06-22T11:30:29;10.07;;;9.18;;
9438;SDS011;5176;42.622;25.386;2023-06-22T11:32:58;10.65;;;9.60;;
9438;SDS011;5176;42.622;25.386;2023-06-22T11:35:26;9.55;;;8.75;;
9438;SDS011;5176;42.622;25.386;2023-06-22T11:37:53;9.32;;;8.63;;
9438;SDS011;5176;42.622;25.386;2023-06-22T11:40:21;9.25;;;8.45;;
9438;SDS011;5176;42.622;25.386;2023-06-22T11:42:48;9.77;;;8.93;;
9438;SDS011;5176;42.622;25.386;2023-06-22T11:45:16;11.70;;;9.52;;
9438;SDS011;5176;42.622;25.386;2023-06-22T11:47:44;10.52;;;9.32;;
9438;SDS011;5176;42.622;25.386;2023-06-22T11:50:13;9.85;;;9.10;;
9438;SDS011;5176;42.622;25.386;2023-06-22T11:52:40;10.35;;;9.27;;
9438;SDS011;5176;42.622;25.386;2023-06-22T11:55:07;9.70;;;8.90;;
9438;SDS011;5176;42.622;25.386;2023-06-22T11:57:35;10.48;;;9.60;;
9438;SDS011;5176;42.622;25.386;2023-06-22T12:00:03;9.75;;;8.88;;
9438;SDS011;5176;42.622;25.386;2023-06-22T12:02:43;10.25;;;9.30;;
9438;SDS011;5176;42.622;25.386;2023-06-22T12:05:11;9.55;;;8.45;;
9438;SDS011;5176;42.622;25.386;2023-06-22T12:07:40;8.98;;;8.27;;
9438;SDS011;5176;42.622;25.386;2023-06-22T12:10:07;9.07;;;8.38;;
9438;SDS011;5176;42.622;25.386;2023-06-22T12:12:35;9.57;;;8.63;;
9438;SDS011;5176;42.622;25.386;2023-06-22T12:15:02;9.40;;;8.60;;
9438;SDS011;5176;42.622;25.386;2023-06-22T12:17:31;8.70;;;8.00;;
9438;SDS011;5176;42.622;25.386;2023-06-22T12:19:58;8.55;;;7.88;;
9438;SDS011;5176;42.622;25.386;2023-06-22T12:22:27;9.35;;;8.65;;
9438;SDS011;5176;42.622;25.386;2023-06-22T12:24:54;9.63;;;8.73;;
9438;SDS011;5176;42.622;25.386;2023-06-22T12:27:21;10.10;;;9.20;;
9438;SDS011;5176;42.622;25.386;2023-06-22T12:29:48;10.70;;;9.10;;
9438;SDS011;5176;42.622;25.386;2023-06-22T12:32:16;9.73;;;8.88;;
9438;SDS011;5176;42.622;25.386;2023-06-22T12:34:44;10.13;;;9.13;;
9438;SDS011;5176;42.622;25.386;2023-06-22T12:37:11;10.82;;;9.82;;
9438;SDS011;5176;42.622;25.386;2023-06-22T12:39:40;10.52;;;9.57;;
9438;SDS011;5176;42.622;25.386;2023-06-22T12:42:08;10.20;;;9.40;;
9438;SDS011;5176;42.622;25.386;2023-06-22T12:44:37;10.57;;;9.38;;
9438;SDS011;5176;42.622;25.386;2023-06-22T12:47:05;9.95;;;9.15;;
9438;SDS011;5176;42.622;25.386;2023-06-22T12:49:33;9.95;;;9.15;;
9438;SDS011;5176;42.622;25.386;2023-06-22T12:52:01;10.40;;;9.48;;
9438;SDS011;5176;42.622;25.386;2023-06-22T12:54:28;10.75;;;9.75;;
9438;SDS011;5176;42.622;25.386;2023-06-22T12:56:57;10.52;;;9.63;;
9438;SDS011;5176;42.622;25.386;2023-06-22T12:59:24;12.32;;;10.00;;
9438;SDS011;5176;42.622;25.386;2023-06-22T13:01:51;10.70;;;9.70;;
9438;SDS011;5176;42.622;25.386;2023-06-22T13:04:19;10.65;;;9.75;;
9438;SDS011;5176;42.622;25.386;2023-06-22T13:06:46;15.35;;;9.70;;
9438;SDS011;5176;42.622;25.386;2023-06-22T13:09:14;10.20;;;9.40;;
9438;SDS011;5176;42.622;25.386;2023-06-22T13:11:42;9.48;;;8.70;;
9438;SDS011;5176;42.622;25.386;2023-06-22T13:14:11;10.73;;;9.40;;
9438;SDS011;5176;42.622;25.386;2023-06-22T13:16:38;9.55;;;8.60;;
9438;SDS011;5176;42.622;25.386;2023-06-22T13:19:05;10.10;;;9.20;;
9438;SDS011;5176;42.622;25.386;2023-06-22T13:21:33;9.80;;;8.90;;
9438;SDS011;5176;42.622;25.386;2023-06-22T13:24:00;10.30;;;9.30;;
9438;SDS011;5176;42.622;25.386;2023-06-22T13:26:28;9.52;;;8.55;;
9438;SDS011;5176;42.622;25.386;2023-06-22T13:28:55;9.73;;;8.88;;
9438;SDS011;5176;42.622;25.386;2023-06-22T13:31:24;9.65;;;8.63;;
9438;SDS011;5176;42.622;25.386;2023-06-22T13:33:51;9.98;;;8.98;;
9438;SDS011;5176;42.622;25.386;2023-06-22T13:36:19;10.30;;;9.23;;
9438;SDS011;5176;42.622;25.386;2023-06-22T13:38:48;11.32;;;10.23;;
9438;SDS011;5176;42.622;25.386;2023-06-22T13:41:15;12.88;;;9.48;;
9438;SDS011;5176;42.622;25.386;2023-06-22T13:43:43;9.80;;;8.80;;
9438;SDS011;5176;42.622;25.386;2023-06-22T13:46:10;10.15;;;8.65;;
9438;SDS011;5176;42.622;25.386;2023-06-22T13:48:39;9.77;;;8.98;;
9438;SDS011;5176;42.622;25.386;2023-06-22T13:51:06;11.40;;;8.57;;
9438;SDS011;5176;42.622;25.386;2023-06-22T13:53:34;9.88;;;9.07;;
9438;SDS011;5176;42.622;25.386;2023-06-22T13:56:01;9.43;;;8.60;;
9438;SDS011;5176;42.622;25.386;2023-06-22T13:58:28;9.45;;;8.65;;
9438;SDS011;5176;42.622;25.386;2023-06-22T14:00:56;10.00;;;9.00;;
9438;SDS011;5176;42.622;25.386;2023-06-22T14:03:23;9.60;;;8.80;;
9438;SDS011;5176;42.622;25.386;2023-06-22T14:05:52;9.55;;;8.60;;
9438;SDS011;5176;42.622;25.386;2023-06-22T14:08:22;10.23;;;9.30;;
9438;SDS011;5176;42.622;25.386;2023-06-22T14:10:50;10.43;;;9.32;;
9438;SDS011;5176;42.622;25.386;2023-06-22T14:13:19;10.63;;;9.70;;
9438;SDS011;5176;42.622;25.386;2023-06-22T14:15:46;10.52;;;9.27;;
9438;SDS011;5176;42.622;25.386;2023-06-22T14:18:14;9.70;;;8.95;;
9438;SDS011;5176;42.622;25.386;2023-06-22T14:20:42;10.00;;;9.13;;
9438;SDS011;5176;42.622;25.386;2023-06-22T14:23:11;10.20;;;9.23;;
9438;SDS011;5176;42.622;25.386;2023-06-22T14:25:39;10.63;;;9.65;;
9438;SDS011;5176;42.622;25.386;2023-06-22T14:28:06;9.43;;;8.57;;
9438;SDS011;5176;42.622;25.386;2023-06-22T14:30:34;9.77;;;8.98;;
9438;SDS011;5176;42.622;25.386;2023-06-22T14:33:01;9.70;;;8.90;;
9438;SDS011;5176;42.622;25.386;2023-06-22T14:35:28;9.85;;;8.95;;
9438;SDS011;5176;42.622;25.386;2023-06-22T14:37:56;10.68;;;9.77;;
9438;SDS011;5176;42.622;25.386;2023-06-22T14:40:25;10.23;;;9.00;;
9438;SDS011;5176;42.622;25.386;2023-06-22T14:42:52;9.65;;;8.75;;
9438;SDS011;5176;42.622;25.386;2023-06-22T14:45:22;9.93;;;9.13;;
9438;SDS011;5176;42.622;25.386;2023-06-22T14:47:49;13.95;;;9.05;;